KBKL/BKL METAR and TAF weather

Enter ICAO airport designator
Station Type Date Time Source
KBKL METAR 2020/07/12 17:53 UTC NOAA

KBKL 121753Z 29004KT 10SM CLR 26/18 A2980 RMK AO2 SLP086 T02560183 10256 20233 51001


Station Type Date Time Source
KBKL Decoded METAR 2020/07/12 17:53 UTC NOAA

CLEVELAND BURKE LAKEFRONT, OH, United States (KBKL) 41-32N 81-40W 184M
Jul 12, 2020 - 01:53 PM EDT / 2020.07.12 1753 UTC
Wind: from the WNW (290 degrees) at 5 MPH (4 KT):0
Visibility: 10 mile(s):0
Sky conditions: clear
Temperature: 78.1 F (25.6 C)
Dew Point: 64.9 F (18.3 C)
Relative Humidity: 64%
Pressure (altimeter): 29.8 in. Hg (1009 hPa)
Pressure tendency: 0.00 inches (0.1 hPa) higher than three hours ago
ob: KBKL 121753Z 29004KT 10SM CLR 26/18 A2980 RMK AO2 SLP086 T02560183 10256 20233 51001
cycle: 18

Station Type Date Time Source
KBKL TAF UTC NOAA

Error!

Example: see airport list